sensor_id;sensor_type;location;lat;lon;timestamp;P1;P2;P0
63915;PMS5003;50094;51.356;-0.196;2023-07-02T00:01:52;20;13;
63915;PMS5003;50094;51.356;-0.196;2023-07-02T00:04:19;13;11;
63915;PMS5003;50094;51.356;-0.196;2023-07-02T00:06:47;17;16;
63915;PMS5003;50094;51.356;-0.196;2023-07-02T00:09:15;14;11;
63915;PMS5003;50094;51.356;-0.196;2023-07-02T00:11:43;17;12;
63915;PMS5003;50094;51.356;-0.196;2023-07-02T00:14:12;11;10;
63915;PMS5003;50094;51.356;-0.196;2023-07-02T00:16:42;14;10;
63915;PMS5003;50094;51.356;-0.196;2023-07-02T00:19:10;13;10;
63915;PMS5003;50094;51.356;-0.196;2023-07-02T00:21:37;11;8;
63915;PMS5003;50094;51.356;-0.196;2023-07-02T00:24:04;16;12;
63915;PMS5003;50094;51.356;-0.196;2023-07-02T00:26:31;12;9;
63915;PMS5003;50094;51.356;-0.196;2023-07-02T00:28:59;14;14;
63915;PMS5003;50094;51.356;-0.196;2023-07-02T00:31:26;17;13;
63915;PMS5003;50094;51.356;-0.196;2023-07-02T00:33:53;10;10;
63915;PMS5003;50094;51.356;-0.196;2023-07-02T00:36:21;19;14;
63915;PMS5003;50094;51.356;-0.196;2023-07-02T00:38:48;14;12;
63915;PMS5003;50094;51.356;-0.196;2023-07-02T00:41:16;13;10;
63915;PMS5003;50094;51.356;-0.196;2023-07-02T00:43:43;15;11;
63915;PMS5003;50094;51.356;-0.196;2023-07-02T00:46:11;17;13;
63915;PMS5003;50094;51.356;-0.196;2023-07-02T00:48:40;17;15;
63915;PMS5003;50094;51.356;-0.196;2023-07-02T00:51:08;15;11;
63915;PMS5003;50094;51.356;-0.196;2023-07-02T00:53:37;13;11;
63915;PMS5003;50094;51.356;-0.196;2023-07-02T00:56:04;8;8;
63915;PMS5003;50094;51.356;-0.196;2023-07-02T00:58:32;17;15;
63915;PMS5003;50094;51.356;-0.196;2023-07-02T01:01:04;11;8;
63915;PMS5003;50094;51.356;-0.196;2023-07-02T01:03:31;11;10;
63915;PMS5003;50094;51.356;-0.196;2023-07-02T01:05:59;12;10;
63915;PMS5003;50094;51.356;-0.196;2023-07-02T01:08:26;11;10;
63915;PMS5003;50094;51.356;-0.196;2023-07-02T01:10:53;14;10;
63915;PMS5003;50094;51.356;-0.196;2023-07-02T01:13:21;14;9;
63915;PMS5003;50094;51.356;-0.196;2023-07-02T01:15:50;11;10;
63915;PMS5003;50094;51.356;-0.196;2023-07-02T01:18:17;14;12;
63915;PMS5003;50094;51.356;-0.196;2023-07-02T01:20:44;21;13;
63915;PMS5003;50094;51.356;-0.196;2023-07-02T01:23:12;12;10;
63915;PMS5003;50094;51.356;-0.196;2023-07-02T01:25:40;10;9;
63915;PMS5003;50094;51.356;-0.196;2023-07-02T01:28:07;14;9;
63915;PMS5003;50094;51.356;-0.196;2023-07-02T01:30:34;11;8;
63915;PMS5003;50094;51.356;-0.196;2023-07-02T01:33:01;18;14;
63915;PMS5003;50094;51.356;-0.196;2023-07-02T01:35:29;13;10;
63915;PMS5003;50094;51.356;-0.196;2023-07-02T01:37:56;11;9;
63915;PMS5003;50094;51.356;-0.196;2023-07-02T01:40:23;10;9;
63915;PMS5003;50094;51.356;-0.196;2023-07-02T01:42:50;12;10;
63915;PMS5003;50094;51.356;-0.196;2023-07-02T01:45:18;10;7;
63915;PMS5003;50094;51.356;-0.196;2023-07-02T01:47:45;12;10;
63915;PMS5003;50094;51.356;-0.196;2023-07-02T01:50:12;13;10;
63915;PMS5003;50094;51.356;-0.196;2023-07-02T01:52:39;15;9;
63915;PMS5003;50094;51.356;-0.196;2023-07-02T01:55:07;15;13;
63915;PMS5003;50094;51.356;-0.196;2023-07-02T01:57:35;15;10;
63915;PMS5003;50094;51.356;-0.196;2023-07-02T02:00:03;11;8;
63915;PMS5003;50094;51.356;-0.196;2023-07-02T02:02:31;10;8;
63915;PMS5003;50094;51.356;-0.196;2023-07-02T02:04:58;13;11;
63915;PMS5003;50094;51.356;-0.196;2023-07-02T02:07:26;14;12;
63915;PMS5003;50094;51.356;-0.196;2023-07-02T02:09:53;8;8;
63915;PMS5003;50094;51.356;-0.196;2023-07-02T02:12:20;13;13;
63915;PMS5003;50094;51.356;-0.196;2023-07-02T02:14:47;10;8;
63915;PMS5003;50094;51.356;-0.196;2023-07-02T02:17:14;10;10;
63915;PMS5003;50094;51.356;-0.196;2023-07-02T02:19:42;19;16;
63915;PMS5003;50094;51.356;-0.196;2023-07-02T02:22:09;16;11;
63915;PMS5003;50094;51.356;-0.196;2023-07-02T02:24:36;9;8;
63915;PMS5003;50094;51.356;-0.196;2023-07-02T02:27:03;9;7;
63915;PMS5003;50094;51.356;-0.196;2023-07-02T02:29:31;14;13;
63915;PMS5003;50094;51.356;-0.196;2023-07-02T02:31:58;15;10;
63915;PMS5003;50094;51.356;-0.196;2023-07-02T02:34:25;14;12;
63915;PMS5003;50094;51.356;-0.196;2023-07-02T02:36:52;12;6;
63915;PMS5003;50094;51.356;-0.196;2023-07-02T02:39:19;11;10;
63915;PMS5003;50094;51.356;-0.196;2023-07-02T02:41:46;10;9;
63915;PMS5003;50094;51.356;-0.196;2023-07-02T02:44:13;14;11;
63915;PMS5003;50094;51.356;-0.196;2023-07-02T02:46:41;13;8;
63915;PMS5003;50094;51.356;-0.196;2023-07-02T02:49:08;19;12;
63915;PMS5003;50094;51.356;-0.196;2023-07-02T02:51:35;12;10;
63915;PMS5003;50094;51.356;-0.196;2023-07-02T02:54:02;8;7;
63915;PMS5003;50094;51.356;-0.196;2023-07-02T02:56:29;11;9;
63915;PMS5003;50094;51.356;-0.196;2023-07-02T02:58:56;15;13;
63915;PMS5003;50094;51.356;-0.196;2023-07-02T03:01:24;12;11;
63915;PMS5003;50094;51.356;-0.196;2023-07-02T03:03:51;11;8;
63915;PMS5003;50094;51.356;-0.196;2023-07-02T03:06:18;11;9;
63915;PMS5003;50094;51.356;-0.196;2023-07-02T03:08:45;10;8;
63915;PMS5003;50094;51.356;-0.196;2023-07-02T03:11:13;10;7;
63915;PMS5003;50094;51.356;-0.196;2023-07-02T03:13:39;12;9;
63915;PMS5003;50094;51.356;-0.196;2023-07-02T03:16:06;16;11;
63915;PMS5003;50094;51.356;-0.196;2023-07-02T03:18:34;15;13;
63915;PMS5003;50094;51.356;-0.196;2023-07-02T03:21:01;14;9;
63915;PMS5003;50094;51.356;-0.196;2023-07-02T03:23:29;9;8;
63915;PMS5003;50094;51.356;-0.196;2023-07-02T03:25:55;8;6;
63915;PMS5003;50094;51.356;-0.196;2023-07-02T03:28:22;11;9;
63915;PMS5003;50094;51.356;-0.196;2023-07-02T03:30:50;11;6;
63915;PMS5003;50094;51.356;-0.196;2023-07-02T03:33:17;9;9;
63915;PMS5003;50094;51.356;-0.196;2023-07-02T03:35:44;11;8;
63915;PMS5003;50094;51.356;-0.196;2023-07-02T03:38:11;8;8;
63915;PMS5003;50094;51.356;-0.196;2023-07-02T03:40:38;12;10;
63915;PMS5003;50094;51.356;-0.196;2023-07-02T03:43:06;14;8;
63915;PMS5003;50094;51.356;-0.196;2023-07-02T03:45:33;15;13;
63915;PMS5003;50094;51.356;-0.196;2023-07-02T03:48:00;9;8;
63915;PMS5003;50094;51.356;-0.196;2023-07-02T03:50:28;9;7;
63915;PMS5003;50094;51.356;-0.196;2023-07-02T03:52:55;7;7;
63915;PMS5003;50094;51.356;-0.196;2023-07-02T03:55:22;9;9;
63915;PMS5003;50094;51.356;-0.196;2023-07-02T03:57:49;10;10;
63915;PMS5003;50094;51.356;-0.196;2023-07-02T04:00:17;13;8;
63915;PMS5003;50094;51.356;-0.196;2023-07-02T04:02:44;10;8;
63915;PMS5003;50094;51.356;-0.196;2023-07-02T04:05:13;10;8;
63915;PMS5003;50094;51.356;-0.196;2023-07-02T04:07:41;10;7;
63915;PMS5003;50094;51.356;-0.196;2023-07-02T04:10:08;10;8;
63915;PMS5003;50094;51.356;-0.196;2023-07-02T04:12:36;11;8;
63915;PMS5003;50094;51.356;-0.196;2023-07-02T04:15:04;7;6;
63915;PMS5003;50094;51.356;-0.196;2023-07-02T04:17:32;14;8;
63915;PMS5003;50094;51.356;-0.196;2023-07-02T04:19:59;11;6;
63915;PMS5003;50094;51.356;-0.196;2023-07-02T04:22:28;10;9;
63915;PMS5003;50094;51.356;-0.196;2023-07-02T04:24:56;12;9;
63915;PMS5003;50094;51.356;-0.196;2023-07-02T04:27:22;11;8;
63915;PMS5003;50094;51.356;-0.196;2023-07-02T04:29:50;6;5;
63915;PMS5003;50094;51.356;-0.196;2023-07-02T04:32:17;12;10;
63915;PMS5003;50094;51.356;-0.196;2023-07-02T04:34:44;9;9;
63915;PMS5003;50094;51.356;-0.196;2023-07-02T04:37:11;10;7;
63915;PMS5003;50094;51.356;-0.196;2023-07-02T04:39:38;9;8;
63915;PMS5003;50094;51.356;-0.196;2023-07-02T04:42:06;11;8;
63915;PMS5003;50094;51.356;-0.196;2023-07-02T04:44:33;10;8;
63915;PMS5003;50094;51.356;-0.196;2023-07-02T04:47:01;11;8;
63915;PMS5003;50094;51.356;-0.196;2023-07-02T04:49:28;9;8;
63915;PMS5003;50094;51.356;-0.196;2023-07-02T04:51:55;12;8;
63915;PMS5003;50094;51.356;-0.196;2023-07-02T04:54:23;7;6;
63915;PMS5003;50094;51.356;-0.196;2023-07-02T04:56:50;10;8;
63915;PMS5003;50094;51.356;-0.196;2023-07-02T04:59:20;6;5;
63915;PMS5003;50094;51.356;-0.196;2023-07-02T05:01:48;14;12;
63915;PMS5003;50094;51.356;-0.196;2023-07-02T05:04:14;11;8;
63915;PMS5003;50094;51.356;-0.196;2023-07-02T05:06:41;10;7;
63915;PMS5003;50094;51.356;-0.196;2023-07-02T05:09:08;7;7;
63915;PMS5003;50094;51.356;-0.196;2023-07-02T05:11:35;11;8;
63915;PMS5003;50094;51.356;-0.196;2023-07-02T05:14:02;11;9;
63915;PMS5003;50094;51.356;-0.196;2023-07-02T05:16:29;8;6;
63915;PMS5003;50094;51.356;-0.196;2023-07-02T05:18:56;10;7;
63915;PMS5003;50094;51.356;-0.196;2023-07-02T05:21:23;10;7;
63915;PMS5003;50094;51.356;-0.196;2023-07-02T05:23:51;7;7;
63915;PMS5003;50094;51.356;-0.196;2023-07-02T05:26:18;9;6;
63915;PMS5003;50094;51.356;-0.196;2023-07-02T05:28:45;8;6;
63915;PMS5003;50094;51.356;-0.196;2023-07-02T05:31:13;11;8;
63915;PMS5003;50094;51.356;-0.196;2023-07-02T05:33:39;11;6;
63915;PMS5003;50094;51.356;-0.196;2023-07-02T05:36:06;7;7;
63915;PMS5003;50094;51.356;-0.196;2023-07-02T05:38:34;8;8;
63915;PMS5003;50094;51.356;-0.196;2023-07-02T05:41:01;7;7;
63915;PMS5003;50094;51.356;-0.196;2023-07-02T05:43:29;11;11;
63915;PMS5003;50094;51.356;-0.196;2023-07-02T05:45:57;7;6;
63915;PMS5003;50094;51.356;-0.196;2023-07-02T05:48:25;7;7;
63915;PMS5003;50094;51.356;-0.196;2023-07-02T05:50:53;9;7;
63915;PMS5003;50094;51.356;-0.196;2023-07-02T05:53:21;8;7;
63915;PMS5003;50094;51.356;-0.196;2023-07-02T05:55:48;6;5;
63915;PMS5003;50094;51.356;-0.196;2023-07-02T05:58:15;9;5;
63915;PMS5003;50094;51.356;-0.196;2023-07-02T06:00:42;11;7;
63915;PMS5003;50094;51.356;-0.196;2023-07-02T06:03:09;6;5;
63915;PMS5003;50094;51.356;-0.196;2023-07-02T06:05:35;10;5;
63915;PMS5003;50094;51.356;-0.196;2023-07-02T06:08:02;6;5;
63915;PMS5003;50094;51.356;-0.196;2023-07-02T06:10:30;9;6;
63915;PMS5003;50094;51.356;-0.196;2023-07-02T06:12:57;12;11;
63915;PMS5003;50094;51.356;-0.196;2023-07-02T06:15:24;11;8;
63915;PMS5003;50094;51.356;-0.196;2023-07-02T06:17:51;13;10;
63915;PMS5003;50094;51.356;-0.196;2023-07-02T06:20:18;8;5;
63915;PMS5003;50094;51.356;-0.196;2023-07-02T06:22:45;7;6;
63915;PMS5003;50094;51.356;-0.196;2023-07-02T06:25:12;9;6;
63915;PMS5003;50094;51.356;-0.196;2023-07-02T06:27:40;6;6;
63915;PMS5003;50094;51.356;-0.196;2023-07-02T06:30:07;7;5;
63915;PMS5003;50094;51.356;-0.196;2023-07-02T06:32:34;7;3;
63915;PMS5003;50094;51.356;-0.196;2023-07-02T06:35:02;8;5;
63915;PMS5003;50094;51.356;-0.196;2023-07-02T06:37:29;10;6;
63915;PMS5003;50094;51.356;-0.196;2023-07-02T06:39:56;5;4;
63915;PMS5003;50094;51.356;-0.196;2023-07-02T06:42:23;10;7;
63915;PMS5003;50094;51.356;-0.196;2023-07-02T06:44:51;5;5;
63915;PMS5003;50094;51.356;-0.196;2023-07-02T06:47:18;8;6;
63915;PMS5003;50094;51.356;-0.196;2023-07-02T06:49:45;5;5;
63915;PMS5003;50094;51.356;-0.196;2023-07-02T06:52:12;6;6;
63915;PMS5003;50094;51.356;-0.196;2023-07-02T06:54:40;10;7;
63915;PMS5003;50094;51.356;-0.196;2023-07-02T06:57:07;5;4;
63915;PMS5003;50094;51.356;-0.196;2023-07-02T06:59:33;7;6;
63915;PMS5003;50094;51.356;-0.196;2023-07-02T07:02:01;6;6;
63915;PMS5003;50094;51.356;-0.196;2023-07-02T07:04:28;12;6;
63915;PMS5003;50094;51.356;-0.196;2023-07-02T07:06:55;13;10;
63915;PMS5003;50094;51.356;-0.196;2023-07-02T07:09:22;7;6;
63915;PMS5003;50094;51.356;-0.196;2023-07-02T07:11:49;6;5;
63915;PMS5003;50094;51.356;-0.196;2023-07-02T07:14:16;8;4;
63915;PMS5003;50094;51.356;-0.196;2023-07-02T07:16:43;8;6;
63915;PMS5003;50094;51.356;-0.196;2023-07-02T07:19:09;7;6;
63915;PMS5003;50094;51.356;-0.196;2023-07-02T07:21:37;5;4;
63915;PMS5003;50094;51.356;-0.196;2023-07-02T07:24:04;10;6;
63915;PMS5003;50094;51.356;-0.196;2023-07-02T07:26:31;5;5;
63915;PMS5003;50094;51.356;-0.196;2023-07-02T07:28:58;8;6;
63915;PMS5003;50094;51.356;-0.196;2023-07-02T07:31:25;4;3;
63915;PMS5003;50094;51.356;-0.196;2023-07-02T07:33:52;8;5;
63915;PMS5003;50094;51.356;-0.196;2023-07-02T07:36:19;7;4;
63915;PMS5003;50094;51.356;-0.196;2023-07-02T07:38:46;7;5;
63915;PMS5003;50094;51.356;-0.196;2023-07-02T07:41:13;4;3;
63915;PMS5003;50094;51.356;-0.196;2023-07-02T07:43:40;6;4;
63915;PMS5003;50094;51.356;-0.196;2023-07-02T07:46:08;8;4;
63915;PMS5003;50094;51.356;-0.196;2023-07-02T07:48:35;5;4;
63915;PMS5003;50094;51.356;-0.196;2023-07-02T07:51:01;11;8;
63915;PMS5003;50094;51.356;-0.196;2023-07-02T07:53:28;6;5;
63915;PMS5003;50094;51.356;-0.196;2023-07-02T07:55:55;10;8;
63915;PMS5003;50094;51.356;-0.196;2023-07-02T07:58:22;4;4;
63915;PMS5003;50094;51.356;-0.196;2023-07-02T08:00:49;4;3;
63915;PMS5003;50094;51.356;-0.196;2023-07-02T08:03:16;5;3;
63915;PMS5003;50094;51.356;-0.196;2023-07-02T08:05:43;5;4;
63915;PMS5003;50094;51.356;-0.196;2023-07-02T08:08:11;5;3;
63915;PMS5003;50094;51.356;-0.196;2023-07-02T08:10:37;5;4;
63915;PMS5003;50094;51.356;-0.196;2023-07-02T08:13:04;5;5;
63915;PMS5003;50094;51.356;-0.196;2023-07-02T08:15:31;8;4;
63915;PMS5003;50094;51.356;-0.196;2023-07-02T08:17:58;6;5;
63915;PMS5003;50094;51.356;-0.196;2023-07-02T08:20:25;5;3;
63915;PMS5003;50094;51.356;-0.196;2023-07-02T08:22:52;6;4;
63915;PMS5003;50094;51.356;-0.196;2023-07-02T08:25:20;8;7;
63915;PMS5003;50094;51.356;-0.196;2023-07-02T08:27:47;6;4;
63915;PMS5003;50094;51.356;-0.196;2023-07-02T08:30:14;4;3;
63915;PMS5003;50094;51.356;-0.196;2023-07-02T08:32:42;4;4;
63915;PMS5003;50094;51.356;-0.196;2023-07-02T08:35:09;7;6;
63915;PMS5003;50094;51.356;-0.196;2023-07-02T08:37:35;3;3;
63915;PMS5003;50094;51.356;-0.196;2023-07-02T08:40:03;4;3;
63915;PMS5003;50094;51.356;-0.196;2023-07-02T08:42:31;4;3;
63915;PMS5003;50094;51.356;-0.196;2023-07-02T08:44:59;4;4;
63915;PMS5003;50094;51.356;-0.196;2023-07-02T08:47:26;5;4;
63915;PMS5003;50094;51.356;-0.196;2023-07-02T08:49:54;2;2;
63915;PMS5003;50094;51.356;-0.196;2023-07-02T08:52:21;5;4;
63915;PMS5003;50094;51.356;-0.196;2023-07-02T08:54:48;3;3;
63915;PMS5003;50094;51.356;-0.196;2023-07-02T08:57:16;4;4;
63915;PMS5003;50094;51.356;-0.196;2023-07-02T08:59:42;6;3;
63915;PMS5003;50094;51.356;-0.196;2023-07-02T09:02:09;5;5;
63915;PMS5003;50094;51.356;-0.196;2023-07-02T09:04:36;6;4;
63915;PMS5003;50094;51.356;-0.196;2023-07-02T09:07:03;4;4;
63915;PMS5003;50094;51.356;-0.196;2023-07-02T09:09:32;3;3;
63915;PMS5003;50094;51.356;-0.196;2023-07-02T09:12:10;2;2;
63915;PMS5003;50094;51.356;-0.196;2023-07-02T09:14:53;4;4;
63915;PMS5003;50094;51.356;-0.196;2023-07-02T09:17:26;4;4;
63915;PMS5003;50094;51.356;-0.196;2023-07-02T09:19:53;7;6;
63915;PMS5003;50094;51.356;-0.196;2023-07-02T09:22:20;15;11;
63915;PMS5003;50094;51.356;-0.196;2023-07-02T09:24:51;18;12;
63915;PMS5003;50094;51.356;-0.196;2023-07-02T09:27:18;8;7;
63915;PMS5003;50094;51.356;-0.196;2023-07-02T09:29:49;8;6;
63915;PMS5003;50094;51.356;-0.196;2023-07-02T09:32:23;12;8;
63915;PMS5003;50094;51.356;-0.196;2023-07-02T09:34:53;14;11;
63915;PMS5003;50094;51.356;-0.196;2023-07-02T09:37:21;13;6;
63915;PMS5003;50094;51.356;-0.196;2023-07-02T09:39:49;16;13;
63915;PMS5003;50094;51.356;-0.196;2023-07-02T09:42:18;5;5;
63915;PMS5003;50094;51.356;-0.196;2023-07-02T09:44:46;7;7;
63915;PMS5003;50094;51.356;-0.196;2023-07-02T09:47:14;5;3;
63915;PMS5003;50094;51.356;-0.196;2023-07-02T09:49:47;3;3;
63915;PMS5003;50094;51.356;-0.196;2023-07-02T09:52:19;7;5;
63915;PMS5003;50094;51.356;-0.196;2023-07-02T09:54:46;8;6;
63915;PMS5003;50094;51.356;-0.196;2023-07-02T09:57:13;4;4;
63915;PMS5003;50094;51.356;-0.196;2023-07-02T09:59:40;6;5;
63915;PMS5003;50094;51.356;-0.196;2023-07-02T10:02:08;4;4;
63915;PMS5003;50094;51.356;-0.196;2023-07-02T10:04:39;6;5;
63915;PMS5003;50094;51.356;-0.196;2023-07-02T10:07:07;6;5;
63915;PMS5003;50094;51.356;-0.196;2023-07-02T10:09:35;9;5;
63915;PMS5003;50094;51.356;-0.196;2023-07-02T10:12:14;7;5;
63915;PMS5003;50094;51.356;-0.196;2023-07-02T10:14:43;8;6;
63915;PMS5003;50094;51.356;-0.196;2023-07-02T10:17:10;8;4;
63915;PMS5003;50094;51.356;-0.196;2023-07-02T10:19:51;10;6;
63915;PMS5003;50094;51.356;-0.196;2023-07-02T10:22:18;5;3;
63915;PMS5003;50094;51.356;-0.196;2023-07-02T10:24:50;9;7;
63915;PMS5003;50094;51.356;-0.196;2023-07-02T10:27:18;8;7;
63915;PMS5003;50094;51.356;-0.196;2023-07-02T10:29:49;5;3;
63915;PMS5003;50094;51.356;-0.196;2023-07-02T10:32:25;7;4;
63915;PMS5003;50094;51.356;-0.196;2023-07-02T10:34:53;5;4;
63915;PMS5003;50094;51.356;-0.196;2023-07-02T10:37:21;5;5;
63915;PMS5003;50094;51.356;-0.196;2023-07-02T10:39:48;4;4;
63915;PMS5003;50094;51.356;-0.196;2023-07-02T10:42:16;9;8;
63915;PMS5003;50094;51.356;-0.196;2023-07-02T10:44:47;8;5;
63915;PMS5003;50094;51.356;-0.196;2023-07-02T10:47:16;6;5;
63915;PMS5003;50094;51.356;-0.196;2023-07-02T10:49:43;7;6;
63915;PMS5003;50094;51.356;-0.196;2023-07-02T10:52:11;5;5;
63915;PMS5003;50094;51.356;-0.196;2023-07-02T10:54:39;5;5;
63915;PMS5003;50094;51.356;-0.196;2023-07-02T10:57:07;7;4;
63915;PMS5003;50094;51.356;-0.196;2023-07-02T10:59:35;4;4;
63915;PMS5003;50094;51.356;-0.196;2023-07-02T11:02:03;4;4;
63915;PMS5003;50094;51.356;-0.196;2023-07-02T11:04:30;5;5;
63915;PMS5003;50094;51.356;-0.196;2023-07-02T11:06:57;7;6;
63915;PMS5003;50094;51.356;-0.196;2023-07-02T11:09:24;3;2;
63915;PMS5003;50094;51.356;-0.196;2023-07-02T11:11:53;8;3;
63915;PMS5003;50094;51.356;-0.196;2023-07-02T11:14:29;1;1;
63915;PMS5003;50094;51.356;-0.196;2023-07-02T11:16:57;3;3;
63915;PMS5003;50094;51.356;-0.196;2023-07-02T11:19:25;5;4;
63915;PMS5003;50094;51.356;-0.196;2023-07-02T11:21:53;6;2;
63915;PMS5003;50094;51.356;-0.196;2023-07-02T11:24:29;4;3;
63915;PMS5003;50094;51.356;-0.196;2023-07-02T11:26:58;3;3;
63915;PMS5003;50094;51.356;-0.196;2023-07-02T11:29:28;4;3;
63915;PMS5003;50094;51.356;-0.196;2023-07-02T11:32:04;6;3;
63915;PMS5003;50094;51.356;-0.196;2023-07-02T11:34:32;4;4;
63915;PMS5003;50094;51.356;-0.196;2023-07-02T11:36:59;5;5;
63915;PMS5003;50094;51.356;-0.196;2023-07-02T11:39:26;4;4;
63915;PMS5003;50094;51.356;-0.196;2023-07-02T11:41:53;8;8;
63915;PMS5003;50094;51.356;-0.196;2023-07-02T11:44:20;6;3;
63915;PMS5003;50094;51.356;-0.196;2023-07-02T11:46:47;3;3;
63915;PMS5003;50094;51.356;-0.196;2023-07-02T11:49:15;3;2;
63915;PMS5003;50094;51.356;-0.196;2023-07-02T11:51:42;3;2;
63915;PMS5003;50094;51.356;-0.196;2023-07-02T11:54:10;4;4;
63915;PMS5003;50094;51.356;-0.196;2023-07-02T11:56:37;5;4;
63915;PMS5003;50094;51.356;-0.196;2023-07-02T11:59:04;5;5;
63915;PMS5003;50094;51.356;-0.196;2023-07-02T12:01:31;6;4;
63915;PMS5003;50094;51.356;-0.196;2023-07-02T12:03:57;4;4;
63915;PMS5003;50094;51.356;-0.196;2023-07-02T12:06:25;6;3;
63915;PMS5003;50094;51.356;-0.196;2023-07-02T12:08:52;6;4;
63915;PMS5003;50094;51.356;-0.196;2023-07-02T12:11:18;4;3;
63915;PMS5003;50094;51.356;-0.196;2023-07-02T12:13:45;4;3;
63915;PMS5003;50094;51.356;-0.196;2023-07-02T12:16:12;4;4;
63915;PMS5003;50094;51.356;-0.196;2023-07-02T12:18:39;1;1;
63915;PMS5003;50094;51.356;-0.196;2023-07-02T12:21:06;5;3;
63915;PMS5003;50094;51.356;-0.196;2023-07-02T12:23:33;3;3;
63915;PMS5003;50094;51.356;-0.196;2023-07-02T12:26:00;2;2;
63915;PMS5003;50094;51.356;-0.196;2023-07-02T12:28:27;3;3;
63915;PMS5003;50094;51.356;-0.196;2023-07-02T12:30:54;5;3;
63915;PMS5003;50094;51.356;-0.196;2023-07-02T12:33:21;4;2;
63915;PMS5003;50094;51.356;-0.196;2023-07-02T12:35:48;4;3;
63915;PMS5003;50094;51.356;-0.196;2023-07-02T12:38:15;5;2;
63915;PMS5003;50094;51.356;-0.196;2023-07-02T12:40:42;5;2;
63915;PMS5003;50094;51.356;-0.196;2023-07-02T12:43:08;2;2;
63915;PMS5003;50094;51.356;-0.196;2023-07-02T12:45:35;3;1;
63915;PMS5003;50094;51.356;-0.196;2023-07-02T12:48:02;6;2;
63915;PMS5003;50094;51.356;-0.196;2023-07-02T12:50:30;2;2;
63915;PMS5003;50094;51.356;-0.196;2023-07-02T12:52:57;3;2;
63915;PMS5003;50094;51.356;-0.196;2023-07-02T12:55:24;4;2;
63915;PMS5003;50094;51.356;-0.196;2023-07-02T12:57:51;3;3;
63915;PMS5003;50094;51.356;-0.196;2023-07-02T13:00:18;5;5;
63915;PMS5003;50094;51.356;-0.196;2023-07-02T13:02:45;3;3;
63915;PMS5003;50094;51.356;-0.196;2023-07-02T13:05:12;6;2;
63915;PMS5003;50094;51.356;-0.196;2023-07-02T13:07:40;5;4;
63915;PMS5003;50094;51.356;-0.196;2023-07-02T13:10:07;2;2;
63915;PMS5003;50094;51.356;-0.196;2023-07-02T13:12:35;3;3;
63915;PMS5003;50094;51.356;-0.196;2023-07-02T13:15:02;4;2;
63915;PMS5003;50094;51.356;-0.196;2023-07-02T13:17:30;4;2;
63915;PMS5003;50094;51.356;-0.196;2023-07-02T13:19:56;4;2;
63915;PMS5003;50094;51.356;-0.196;2023-07-02T13:22:23;3;1;
63915;PMS5003;50094;51.356;-0.196;2023-07-02T13:24:50;3;2;
63915;PMS5003;50094;51.356;-0.196;2023-07-02T13:27:17;4;4;
63915;PMS5003;50094;51.356;-0.196;2023-07-02T13:29:45;4;1;
63915;PMS5003;50094;51.356;-0.196;2023-07-02T13:32:11;5;4;
63915;PMS5003;50094;51.356;-0.196;2023-07-02T13:34:38;3;2;
63915;PMS5003;50094;51.356;-0.196;2023-07-02T13:37:05;4;4;
63915;PMS5003;50094;51.356;-0.196;2023-07-02T13:39:33;3;2;
63915;PMS5003;50094;51.356;-0.196;2023-07-02T13:42:00;3;3;
63915;PMS5003;50094;51.356;-0.196;2023-07-02T13:44:27;3;2;
63915;PMS5003;50094;51.356;-0.196;2023-07-02T13:46:55;3;3;
63915;PMS5003;50094;51.356;-0.196;2023-07-02T13:49:22;2;2;
63915;PMS5003;50094;51.356;-0.196;2023-07-02T13:51:49;6;3;
63915;PMS5003;50094;51.356;-0.196;2023-07-02T13:54:16;4;4;
63915;PMS5003;50094;51.356;-0.196;2023-07-02T13:56:44;5;3;
63915;PMS5003;50094;51.356;-0.196;2023-07-02T13:59:11;2;2;
63915;PMS5003;50094;51.356;-0.196;2023-07-02T14:01:38;4;3;
63915;PMS5003;50094;51.356;-0.196;2023-07-02T14:04:05;2;2;
63915;PMS5003;50094;51.356;-0.196;2023-07-02T14:06:32;3;3;
63915;PMS5003;50094;51.356;-0.196;2023-07-02T14:08:59;6;4;
63915;PMS5003;50094;51.356;-0.196;2023-07-02T14:11:27;9;3;
63915;PMS5003;50094;51.356;-0.196;2023-07-02T14:13:55;3;3;
63915;PMS5003;50094;51.356;-0.196;2023-07-02T14:16:22;2;1;
63915;PMS5003;50094;51.356;-0.196;2023-07-02T14:18:49;3;2;
63915;PMS5003;50094;51.356;-0.196;2023-07-02T14:21:17;4;3;
63915;PMS5003;50094;51.356;-0.196;2023-07-02T14:23:44;3;3;
63915;PMS5003;50094;51.356;-0.196;2023-07-02T14:26:11;3;2;
63915;PMS5003;50094;51.356;-0.196;2023-07-02T14:28:39;3;2;
63915;PMS5003;50094;51.356;-0.196;2023-07-02T14:31:06;4;4;
63915;PMS5003;50094;51.356;-0.196;2023-07-02T14:33:34;2;1;
63915;PMS5003;50094;51.356;-0.196;2023-07-02T14:36:02;2;2;
63915;PMS5003;50094;51.356;-0.196;2023-07-02T14:38:31;2;2;
63915;PMS5003;50094;51.356;-0.196;2023-07-02T14:38:32;2;2;
63915;PMS5003;50094;51.356;-0.196;2023-07-02T14:40:59;3;3;
63915;PMS5003;50094;51.356;-0.196;2023-07-02T14:43:28;2;1;
63915;PMS5003;50094;51.356;-0.196;2023-07-02T14:45:56;3;2;
63915;PMS5003;50094;51.356;-0.196;2023-07-02T14:48:24;2;2;
63915;PMS5003;50094;51.356;-0.196;2023-07-02T14:50:53;3;3;
63915;PMS5003;50094;51.356;-0.196;2023-07-02T14:53:21;4;4;
63915;PMS5003;50094;51.356;-0.196;2023-07-02T14:55:49;1;1;
63915;PMS5003;50094;51.356;-0.196;2023-07-02T14:58:16;3;3;
63915;PMS5003;50094;51.356;-0.196;2023-07-02T15:00:45;3;3;
63915;PMS5003;50094;51.356;-0.196;2023-07-02T15:03:13;3;3;
63915;PMS5003;50094;51.356;-0.196;2023-07-02T15:05:41;7;3;
63915;PMS5003;50094;51.356;-0.196;2023-07-02T15:08:08;3;3;
63915;PMS5003;50094;51.356;-0.196;2023-07-02T15:10:36;2;2;
63915;PMS5003;50094;51.356;-0.196;2023-07-02T15:13:03;3;1;
63915;PMS5003;50094;51.356;-0.196;2023-07-02T15:15:30;3;3;
63915;PMS5003;50094;51.356;-0.196;2023-07-02T15:17:56;5;2;
63915;PMS5003;50094;51.356;-0.196;2023-07-02T15:20:23;2;2;
63915;PMS5003;50094;51.356;-0.196;2023-07-02T15:22:51;2;2;
63915;PMS5003;50094;51.356;-0.196;2023-07-02T15:25:18;2;2;
63915;PMS5003;50094;51.356;-0.196;2023-07-02T15:27:46;1;1;
63915;PMS5003;50094;51.356;-0.196;2023-07-02T15:30:13;3;1;
63915;PMS5003;50094;51.356;-0.196;2023-07-02T15:32:41;2;2;
63915;PMS5003;50094;51.356;-0.196;2023-07-02T15:35:08;1;1;
63915;PMS5003;50094;51.356;-0.196;2023-07-02T15:37:36;3;3;
63915;PMS5003;50094;51.356;-0.196;2023-07-02T15:40:03;1;1;
63915;PMS5003;50094;51.356;-0.196;2023-07-02T15:42:30;3;2;
63915;PMS5003;50094;51.356;-0.196;2023-07-02T15:44:58;1;1;
63915;PMS5003;50094;51.356;-0.196;2023-07-02T15:47:26;0;0;
63915;PMS5003;50094;51.356;-0.196;2023-07-02T15:49:54;3;3;
63915;PMS5003;50094;51.356;-0.196;2023-07-02T15:52:21;3;2;
63915;PMS5003;50094;51.356;-0.196;2023-07-02T15:54:49;1;1;
63915;PMS5003;50094;51.356;-0.196;2023-07-02T15:57:17;3;3;
63915;PMS5003;50094;51.356;-0.196;2023-07-02T15:59:43;3;3;
63915;PMS5003;50094;51.356;-0.196;2023-07-02T16:02:11;2;2;
63915;PMS5003;50094;51.356;-0.196;2023-07-02T16:04:38;2;2;
63915;PMS5003;50094;51.356;-0.196;2023-07-02T16:07:06;3;3;
63915;PMS5003;50094;51.356;-0.196;2023-07-02T16:09:33;3;2;
63915;PMS5003;50094;51.356;-0.196;2023-07-02T16:12:00;1;1;
63915;PMS5003;50094;51.356;-0.196;2023-07-02T16:14:28;2;2;
63915;PMS5003;50094;51.356;-0.196;2023-07-02T16:16:55;5;3;
63915;PMS5003;50094;51.356;-0.196;2023-07-02T16:19:23;3;2;
63915;PMS5003;50094;51.356;-0.196;2023-07-02T16:21:51;4;3;
63915;PMS5003;50094;51.356;-0.196;2023-07-02T16:24:19;1;1;
63915;PMS5003;50094;51.356;-0.196;2023-07-02T16:26:49;2;1;